Time;durP1;ratioP1;P1;durP2;ratioP2;P2;SDS_P1;SDS_P2;PMS_P1;PMS_P2;Temp;Humidity;BMP_temperature;BMP_pressure;BME280_temperature;BME280_humidity;BME280_pressure;Samples;Min_cycle;Max_cycle;Signal;HPM_P1;HPM_P2
2021/05/30 00:01:41;;;;;;;22.33;11.07;;;;;;;8.49;100.00;102639.66;6222543;28;20493;-75
2021/05/30 00:04:42;;;;;;;23.45;12.10;;;;;;;8.52;100.00;102629.13;6222517;28;20053;-75
2021/05/30 00:07:44;;;;;;;23.30;11.90;;;;;;;8.48;100.00;102630.06;6222179;28;20418;-75
2021/05/30 00:10:45;;;;;;;22.30;12.68;;;;;;;8.43;100.00;102635.38;6222216;28;20049;-75
2021/05/30 00:13:46;;;;;;;24.02;12.38;;;;;;;8.39;100.00;102633.66;6222345;28;20053;-75
2021/05/30 00:16:47;;;;;;;23.77;11.43;;;;;;;8.32;100.00;102637.25;6221919;28;20184;-75
2021/05/30 00:19:48;;;;;;;24.52;12.20;;;;;;;8.31;100.00;102631.16;6222132;28;20416;-75
2021/05/30 00:22:49;;;;;;;20.88;12.07;;;;;;;8.25;100.00;102627.72;6221896;28;20046;-75
2021/05/30 00:25:50;;;;;;;18.50;10.93;;;;;;;8.26;100.00;102632.94;6222018;28;20045;-75
2021/05/30 00:28:51;;;;;;;23.35;13.73;;;;;;;8.20;100.00;102626.94;6223451;28;20501;-75
2021/05/30 00:31:52;;;;;;;25.30;13.30;;;;;;;8.18;100.00;102633.94;6222018;28;20054;-75
2021/05/30 00:34:53;;;;;;;24.08;12.90;;;;;;;8.10;100.00;102644.50;6221359;28;20049;-75
2021/05/30 00:37:55;;;;;;;22.55;12.05;;;;;;;8.06;100.00;102634.97;6222092;28;20057;-75
2021/05/30 00:40:57;;;;;;;19.25;12.38;;;;;;;8.03;100.00;102633.22;6223302;28;20504;-75
2021/05/30 00:43:58;;;;;;;24.75;11.80;;;;;;;8.02;100.00;102633.25;6222985;28;20050;-75
2021/05/30 00:46:59;;;;;;;24.40;11.88;;;;;;;7.98;100.00;102629.81;6223113;28;20092;-75
2021/05/30 00:50:00;;;;;;;24.70;12.18;;;;;;;7.93;100.00;102636.00;6222923;28;20053;-75
2021/05/30 00:53:02;;;;;;;23.48;12.68;;;;;;;7.91;100.00;102632.53;6222774;28;21654;-75
2021/05/30 00:56:05;;;;;;;24.55;12.52;;;;;;;7.92;100.00;102632.50;6222713;28;20053;-75
2021/05/30 00:59:06;;;;;;;21.15;12.48;;;;;;;7.91;100.00;102628.16;6222002;28;20057;-75
2021/05/30 01:02:07;;;;;;;21.83;12.38;;;;;;;7.83;100.00;102628.25;6214384;28;20497;-75
2021/05/30 01:05:09;;;;;;;20.02;11.88;;;;;;;7.79;100.00;102639.63;6214802;28;20077;-75
2021/05/30 01:08:11;;;;;;;25.30;12.18;;;;;;;7.74;100.00;102624.88;6221565;28;20057;-75
2021/05/30 01:11:14;;;;;;;22.58;11.80;;;;;;;7.68;100.00;102620.59;6222694;28;20489;-75
2021/05/30 01:14:15;;;;;;;21.02;12.30;;;;;;;7.62;100.00;102620.63;6222445;28;20073;-75
2021/05/30 01:17:17;;;;;;;26.05;13.23;;;;;;;7.58;100.00;102624.16;6222660;28;20046;-75
2021/05/30 01:20:19;;;;;;;20.92;11.93;;;;;;;7.52;100.00;102626.84;6222397;28;20052;-75
2021/05/30 01:23:22;;;;;;;23.45;12.52;;;;;;;7.48;100.00;102625.16;6220417;28;20054;-75
2021/05/30 01:26:24;;;;;;;24.58;13.15;;;;;;;7.45;100.00;102622.56;6216273;28;20413;-75
2021/05/30 01:29:25;;;;;;;25.92;12.57;;;;;;;7.38;100.00;102624.38;6222593;28;20054;-75
2021/05/30 01:32:26;;;;;;;22.60;12.88;;;;;;;7.35;100.00;102624.41;6222297;28;20050;-75
2021/05/30 01:35:28;;;;;;;22.08;12.52;;;;;;;7.34;100.00;102627.91;6222613;28;20136;-75
2021/05/30 01:38:29;;;;;;;23.95;12.13;;;;;;;7.30;100.00;102620.97;6222169;28;20053;-75
2021/05/30 01:41:30;;;;;;;20.42;11.95;;;;;;;7.29;100.00;102630.56;6222132;28;20050;-75
2021/05/30 01:44:31;;;;;;;22.23;13.38;;;;;;;7.26;100.00;102625.34;6222177;28;20088;-75
2021/05/30 01:47:36;;;;;;;22.75;12.25;;;;;;;7.23;100.00;102621.91;6222085;28;20049;-75
2021/05/30 01:50:37;;;;;;;26.70;13.75;;;;;;;7.24;100.00;102621.03;6222273;28;20057;-75
2021/05/30 01:53:43;;;;;;;25.85;14.00;;;;;;;7.23;100.00;102630.63;6221790;28;20053;-75
2021/05/30 01:56:56;;;;;;;22.98;11.70;;;;;;;7.23;100.00;102624.53;6221788;28;20085;-75
2021/05/30 01:59:57;;;;;;;30.70;13.52;;;;;;;7.26;100.00;102627.09;6221902;28;20089;-75
2021/05/30 02:02:58;;;;;;;24.77;13.05;;;;;;;7.22;100.00;102622.78;6222039;28;20054;-75
2021/05/30 02:06:01;;;;;;;24.77;12.88;;;;;;;7.17;100.00;102630.66;6221814;28;20057;-75
2021/05/30 02:09:03;;;;;;;22.80;12.02;;;;;;;7.16;100.00;102628.06;6221524;28;20054;-75
2021/05/30 02:12:06;;;;;;;23.70;12.70;;;;;;;7.12;100.00;102632.47;6221654;28;20054;-75
2021/05/30 02:15:08;;;;;;;20.70;12.48;;;;;;;7.07;100.00;102631.63;6221560;28;20464;-75
2021/05/30 02:18:09;;;;;;;23.63;13.43;;;;;;;7.05;100.00;102626.44;6221494;28;20046;-75
2021/05/30 02:21:10;;;;;;;23.23;12.07;;;;;;;7.03;100.00;102632.53;6225394;28;20111;-75
2021/05/30 02:24:13;;;;;;;21.88;12.23;;;;;;;7.01;100.00;102632.56;6226397;28;20049;-75
2021/05/30 02:27:13;;;;;;;22.42;12.63;;;;;;;7.01;100.00;102635.16;6226264;28;20069;-75
2021/05/30 02:30:15;;;;;;;27.20;12.77;;;;;;;7.02;100.00;102639.50;6226364;28;20050;-75
2021/05/30 02:33:16;;;;;;;25.13;12.70;;;;;;;7.00;100.00;102638.66;6226056;28;20050;-75
2021/05/30 02:36:17;;;;;;;26.80;13.77;;;;;;;6.98;100.00;102634.31;6225816;28;20108;-75
2021/05/30 02:39:18;;;;;;;28.48;13.32;;;;;;;6.96;100.00;102630.88;6225571;28;20097;-75
2021/05/30 02:42:19;;;;;;;28.15;12.98;;;;;;;6.90;100.00;102638.72;6226039;28;20093;-75
2021/05/30 02:45:20;;;;;;;26.67;13.27;;;;;;;6.86;100.00;102643.16;6225867;28;20077;-75
2021/05/30 02:48:21;;;;;;;28.45;13.43;;;;;;;6.84;100.00;102640.53;6225891;28;20050;-75
2021/05/30 02:51:22;;;;;;;24.67;12.95;;;;;;;6.84;100.00;102634.44;6225792;28;20078;-75
2021/05/30 02:54:23;;;;;;;38.33;12.88;;;;;;;6.78;100.00;102642.31;6225529;28;20574;-75
2021/05/30 02:57:24;;;;;;;23.95;13.05;;;;;;;6.79;100.00;102639.69;6225493;28;20050;-75
2021/05/30 03:00:25;;;;;;;28.45;13.10;;;;;;;6.81;100.00;102643.19;6225426;28;20054;-75
2021/05/30 03:03:26;;;;;;;27.98;13.55;;;;;;;6.77;100.00;102645.81;6225594;28;20045;-75
2021/05/30 03:06:27;;;;;;;25.98;13.55;;;;;;;6.76;100.00;102646.69;6225056;28;20293;-75
2021/05/30 03:09:29;;;;;;;21.60;12.38;;;;;;;6.75;100.00;102644.94;6225400;28;20053;-75
2021/05/30 03:12:30;;;;;;;22.35;13.05;;;;;;;6.78;100.00;102644.94;6225283;28;20068;-75
2021/05/30 03:15:30;;;;;;;28.98;14.68;;;;;;;6.77;100.00;102644.06;6225177;28;20053;-75
2021/05/30 03:18:31;;;;;;;29.13;13.30;;;;;;;6.71;100.00;102643.22;6224979;28;20416;-75
2021/05/30 03:21:33;;;;;;;24.15;13.35;;;;;;;6.69;100.00;102637.16;6225190;28;20046;-75
2021/05/30 03:24:35;;;;;;;24.58;13.88;;;;;;;6.70;100.00;102639.75;6225028;28;20060;-75
2021/05/30 03:27:36;;;;;;;29.40;13.57;;;;;;;6.69;100.00;102647.63;6224885;28;20053;-75
2021/05/30 03:30:37;;;;;;;27.73;12.65;;;;;;;6.66;100.00;102645.00;6224502;28;20053;-75
2021/05/30 03:33:38;;;;;;;22.02;12.88;;;;;;;6.60;100.00;102645.94;6224201;28;20076;-75
2021/05/30 03:36:40;;;;;;;21.77;12.18;;;;;;;6.60;100.00;102646.78;6224532;28;20042;-75
2021/05/30 03:39:44;;;;;;;27.20;12.98;;;;;;;6.61;100.00;102647.66;6224389;28;20050;-75
2021/05/30 03:42:50;;;;;;;29.15;11.95;;;;;;;6.57;100.00;102645.94;6224579;28;20057;-75
2021/05/30 03:45:51;;;;;;;24.65;11.68;;;;;;;6.57;100.00;102643.31;6224559;28;20501;-75
2021/05/30 03:48:52;;;;;;;19.85;12.00;;;;;;;6.56;100.00;102639.84;6224456;28;20057;-75
2021/05/30 03:51:53;;;;;;;25.05;12.82;;;;;;;6.52;100.00;102645.09;6224415;28;20700;-75
2021/05/30 03:54:54;;;;;;;21.08;12.50;;;;;;;6.48;100.00;102641.63;6224100;28;20049;-75
2021/05/30 03:57:55;;;;;;;20.27;11.60;;;;;;;6.48;100.00;102643.38;6223973;28;20049;-75
2021/05/30 04:00:56;;;;;;;21.95;12.85;;;;;;;6.47;100.00;102650.34;6224254;28;20053;-75
2021/05/30 04:03:57;;;;;;;22.30;12.30;;;;;;;6.51;100.00;102648.59;6224048;28;20061;-75
2021/05/30 04:06:58;;;;;;;23.02;11.95;;;;;;;6.58;100.00;102648.53;6223956;28;20050;-75
2021/05/30 04:10:03;;;;;;;21.77;12.52;;;;;;;6.58;100.00;102643.31;6223725;28;20518;-75
2021/05/30 04:13:03;;;;;;;27.75;13.18;;;;;;;6.58;100.00;102645.06;6223957;28;20082;-75
2021/05/30 04:16:05;;;;;;;21.98;12.88;;;;;;;6.61;100.00;102648.50;6223719;28;20592;-75
2021/05/30 04:19:05;;;;;;;22.90;11.45;;;;;;;6.66;100.00;102651.09;6223667;28;20050;-75
2021/05/30 04:22:06;;;;;;;24.77;13.10;;;;;;;6.66;100.00;102652.84;6223637;28;20053;-75
2021/05/30 04:25:10;;;;;;;22.92;13.40;;;;;;;6.69;100.00;102658.06;6223769;28;20078;-75
2021/05/30 04:28:11;;;;;;;22.85;12.48;;;;;;;6.69;100.00;102664.16;6223479;28;20053;-75
2021/05/30 04:31:12;;;;;;;25.63;13.25;;;;;;;6.72;100.00;102666.75;6223438;28;20100;-75
2021/05/30 04:34:13;;;;;;;31.27;15.32;;;;;;;6.77;100.00;102670.19;6223611;28;20525;-75
2021/05/30 04:37:13;;;;;;;32.40;14.75;;;;;;;6.83;100.00;102671.91;6223167;28;20088;-75
2021/05/30 04:40:16;;;;;;;27.50;14.65;;;;;;;6.90;100.00;102667.47;6223429;28;20081;-75
2021/05/30 04:43:17;;;;;;;25.15;13.38;;;;;;;6.93;100.00;102664.84;6223053;28;20045;-75
2021/05/30 04:46:18;;;;;;;21.20;12.73;;;;;;;6.94;100.00;102667.44;6223285;28;20053;-75
2021/05/30 04:49:19;;;;;;;27.25;13.52;;;;;;;6.98;100.00;102669.16;6216712;28;20140;-75
2021/05/30 04:52:20;;;;;;;27.95;14.88;;;;;;;7.06;100.00;102672.59;6207931;28;20590;-75
2021/05/30 04:55:22;;;;;;;32.95;14.75;;;;;;;7.09;100.00;102679.56;6198445;28;20050;-74
2021/05/30 04:58:23;;;;;;;29.77;14.20;;;;;;;7.07;100.00;102673.47;6217029;28;20054;-75
2021/05/30 05:01:24;;;;;;;31.02;15.38;;;;;;;7.15;100.00;102678.63;6222552;28;20551;-75
2021/05/30 05:04:25;;;;;;;24.92;14.73;;;;;;;7.23;100.00;102679.44;6219138;28;20054;-75
2021/05/30 05:07:25;;;;;;;29.02;14.85;;;;;;;7.26;100.00;102684.63;6222678;28;20054;-75
2021/05/30 05:10:27;;;;;;;28.08;14.45;;;;;;;7.30;100.00;102679.38;6222338;28;20058;-76
2021/05/30 05:13:28;;;;;;;30.00;15.32;;;;;;;7.34;100.00;102681.06;6222634;28;20050;-75
2021/05/30 05:16:30;;;;;;;28.75;14.45;;;;;;;7.44;100.00;102674.00;6222186;28;20041;-75
2021/05/30 05:19:31;;;;;;;30.80;15.48;;;;;;;7.48;100.00;102678.31;6222786;28;20046;-75
2021/05/30 05:22:32;;;;;;;27.05;14.88;;;;;;;7.51;100.00;102680.06;6222545;28;20053;-75
2021/05/30 05:25:35;;;;;;;26.80;14.23;;;;;;;7.53;100.00;102678.28;6222462;28;20061;-75
2021/05/30 05:28:37;;;;;;;32.10;15.63;;;;;;;7.56;100.00;102679.13;6222298;28;20050;-74
2021/05/30 05:31:38;;;;;;;29.85;14.77;;;;;;;7.67;100.00;102684.25;6222449;28;20054;-75
2021/05/30 05:34:39;;;;;;;28.17;15.02;;;;;;;7.75;100.00;102677.19;6222118;28;20050;-75
2021/05/30 05:37:41;;;;;;;39.40;16.83;;;;;;;7.81;100.00;102673.63;6221819;28;20054;-75
2021/05/30 05:40:43;;;;;;;35.53;16.60;;;;;;;7.85;100.00;102672.72;6222291;28;20049;-75
2021/05/30 05:43:44;;;;;;;36.03;17.13;;;;;;;7.92;100.00;102673.53;6221864;28;20053;-75
2021/05/30 05:46:44;;;;;;;35.70;15.38;;;;;;;7.95;100.00;102674.38;6221908;28;20161;-75
2021/05/30 05:49:45;;;;;;;34.60;15.77;;;;;;;8.02;100.00;102669.91;6221917;28;20058;-75
2021/05/30 05:52:46;;;;;;;33.58;15.80;;;;;;;8.07;100.00;102674.22;6201795;28;20053;-75
2021/05/30 05:55:48;;;;;;;29.63;15.82;;;;;;;8.14;100.00;102675.88;6200735;28;20515;-75
2021/05/30 05:58:49;;;;;;;31.40;16.52;;;;;;;8.21;100.00;102674.03;6202524;28;20050;-75
2021/05/30 06:01:50;;;;;;;41.17;15.73;;;;;;;8.30;100.00;102675.69;6202631;28;20057;-75
2021/05/30 06:04:51;;;;;;;32.28;16.08;;;;;;;8.33;100.00;102676.50;6202643;28;20402;-75
2021/05/30 06:07:54;;;;;;;35.33;15.70;;;;;;;8.35;100.00;102674.72;6201925;28;20046;-75
2021/05/30 06:10:55;;;;;;;35.45;17.15;;;;;;;8.44;100.00;102670.28;6202481;28;20133;-75
2021/05/30 06:13:56;;;;;;;28.83;15.25;;;;;;;8.51;100.00;102670.19;6202254;28;20050;-75
2021/05/30 06:16:57;;;;;;;29.85;15.95;;;;;;;8.52;100.00;102663.19;6207799;28;20421;-75
2021/05/30 06:19:58;;;;;;;33.20;17.48;;;;;;;8.53;100.00;102660.53;6226423;28;20056;-75
2021/05/30 06:22:59;;;;;;;29.95;16.00;;;;;;;8.59;100.00;102657.84;6226298;28;20133;-75
2021/05/30 06:26:01;;;;;;;31.77;17.17;;;;;;;8.64;100.00;102661.28;6226233;28;20045;-75
2021/05/30 06:29:01;;;;;;;28.23;15.82;;;;;;;8.72;100.00;102662.91;6219992;28;20054;-75
2021/05/30 06:32:03;;;;;;;33.25;16.08;;;;;;;8.75;100.00;102662.88;6226304;28;20061;-75
2021/05/30 06:35:05;;;;;;;44.05;17.95;;;;;;;8.80;100.00;102658.41;6226101;28;20053;-75
2021/05/30 06:38:06;;;;;;;38.10;15.68;;;;;;;8.83;100.00;102656.63;6225922;28;20501;-75
2021/05/30 06:41:08;;;;;;;30.30;16.25;;;;;;;8.91;100.00;102653.03;6225959;28;20493;-75
2021/05/30 06:44:09;;;;;;;36.08;17.80;;;;;;;9.07;100.00;102657.13;6226128;28;20054;-75
2021/05/30 06:47:10;;;;;;;36.10;17.10;;;;;;;9.53;99.45;102661.56;6225912;28;20061;-75
2021/05/30 06:50:11;;;;;;;38.08;16.90;;;;;;;9.39;100.00;102665.31;6226049;28;20054;-75
2021/05/30 06:53:12;;;;;;;38.70;17.27;;;;;;;9.38;100.00;102660.09;6225800;28;20054;-75
2021/05/30 06:56:14;;;;;;;42.88;18.05;;;;;;;9.48;100.00;102658.16;6225623;28;20421;-75
2021/05/30 06:59:14;;;;;;;34.05;18.05;;;;;;;9.46;100.00;102655.56;6225533;28;20057;-75
2021/05/30 07:02:15;;;;;;;38.72;16.48;;;;;;;9.50;100.00;102654.63;6226011;28;20220;-75
2021/05/30 07:05:20;;;;;;;34.03;17.75;;;;;;;9.75;100.00;102648.91;6225523;28;20054;-75
2021/05/30 07:08:21;;;;;;;28.70;17.27;;;;;;;9.74;100.00;102658.56;6223994;28;20050;-75
2021/05/30 07:11:22;;;;;;;32.13;14.85;;;;;;;9.79;100.00;102647.97;6225529;28;20413;-75
2021/05/30 07:14:23;;;;;;;27.85;15.07;;;;;;;9.94;100.00;102649.41;6224469;28;20060;-75
2021/05/30 07:17:24;;;;;;;25.80;13.32;;;;;;;10.23;95.64;102647.06;6216698;28;20081;-75
2021/05/30 07:20:25;;;;;;;22.70;13.27;;;;;;;10.17;96.14;102647.16;6216811;28;20115;-75
2021/05/30 07:23:26;;;;;;;27.65;13.15;;;;;;;10.17;97.32;102647.16;6222289;28;20058;-75
2021/05/30 07:26:28;;;;;;;29.50;13.70;;;;;;;10.55;95.30;102641.13;6219734;28;20046;-75
2021/05/30 07:29:29;;;;;;;25.65;12.65;;;;;;;10.56;93.65;102642.84;6224785;28;20054;-75
2021/05/30 07:32:30;;;;;;;45.70;11.48;;;;;;;10.39;94.41;102637.94;6224917;28;20088;-75
2021/05/30 07:35:31;;;;;;;24.08;12.85;;;;;;;10.46;94.96;102641.31;6224761;28;20144;-75
2021/05/30 07:38:32;;;;;;;31.83;14.20;;;;;;;10.60;96.43;102633.13;6224549;28;20048;-75
2021/05/30 07:41:34;;;;;;;30.00;12.90;;;;;;;10.76;94.29;102638.88;6216431;28;20516;-75
2021/05/30 07:44:35;;;;;;;23.88;12.35;;;;;;;10.80;93.91;102636.13;6224561;28;20085;-75
2021/05/30 07:47:36;;;;;;;24.88;12.30;;;;;;;10.78;94.57;102639.72;6224350;28;20052;-75
2021/05/30 07:50:37;;;;;;;28.70;13.20;;;;;;;10.87;94.70;102635.09;6224016;28;20046;-75
2021/05/30 07:53:38;;;;;;;28.80;13.93;;;;;;;11.41;93.25;102642.50;6216954;28;20053;-75
2021/05/30 07:56:40;;;;;;;29.55;13.88;;;;;;;11.31;92.09;102645.41;6222089;28;20049;-75
2021/05/30 07:59:41;;;;;;;27.38;12.43;;;;;;;11.21;93.51;102641.28;6209799;28;20142;-75
2021/05/30 08:02:43;;;;;;;22.50;11.43;;;;;;;11.20;94.83;102639.56;6209856;28;20137;-73
2021/05/30 08:05:44;;;;;;;29.08;12.60;;;;;;;11.22;96.00;102643.91;6215905;28;20045;-73
2021/05/30 08:08:45;;;;;;;30.23;13.07;;;;;;;11.30;95.68;102641.91;6221755;28;20053;-74
2021/05/30 08:11:46;;;;;;;29.58;14.25;;;;;;;11.58;93.37;102642.06;6209752;28;20054;-73
2021/05/30 08:14:47;;;;;;;30.73;13.35;;;;;;;11.58;94.99;102636.78;6199613;28;20046;-73
2021/05/30 08:17:48;;;;;;;29.25;12.93;;;;;;;11.83;93.55;102634.38;6198680;28;20088;-74
2021/05/30 08:20:49;;;;;;;29.40;13.13;;;;;;;11.97;93.07;102641.88;6200902;28;20046;-74
2021/05/30 08:23:50;;;;;;;34.33;13.57;;;;;;;11.82;92.67;102632.66;6215408;28;20492;-73
2021/05/30 08:26:54;;;;;;;31.10;13.10;;;;;;;11.69;94.19;102626.81;6223103;28;20092;-73
2021/05/30 08:29:55;;;;;;;25.33;11.57;;;;;;;11.74;94.22;102631.97;6200737;28;20420;-73
2021/05/30 08:32:56;;;;;;;24.35;12.50;;;;;;;11.95;94.71;102629.66;6199084;28;20050;-73
2021/05/30 08:35:57;;;;;;;19.42;11.77;;;;;;;12.48;90.84;102622.75;6199196;28;20097;-73
2021/05/30 08:38:57;;;;;;;24.50;11.93;;;;;;;12.72;88.67;102622.88;6198292;28;20406;-75
2021/05/30 08:41:59;;;;;;;27.10;11.05;;;;;;;12.57;89.09;102622.47;6198770;28;20149;-73
2021/05/30 08:45:00;;;;;;;19.80;10.35;;;;;;;12.70;90.78;102618.53;6198796;28;20054;-74
2021/05/30 08:48:01;;;;;;;19.02;10.70;;;;;;;12.81;87.07;102614.69;6198007;28;20046;-73
2021/05/30 08:51:03;;;;;;;23.48;10.32;;;;;;;12.74;88.40;102616.66;6213522;28;20411;-73
2021/05/30 08:54:08;;;;;;;17.85;9.27;;;;;;;12.87;90.92;102622.41;6217823;28;20045;-73
2021/05/30 08:57:11;;;;;;;24.63;11.52;;;;;;;12.96;87.52;102616.81;6197790;28;20053;-72
2021/05/30 09:00:14;;;;;;;19.60;10.02;;;;;;;12.76;88.66;102608.69;6208960;28;20408;-73
2021/05/30 09:03:16;;;;;;;22.55;9.80;;;;;;;13.00;88.70;102609.69;6222658;28;20065;-72
2021/05/30 09:06:18;;;;;;;15.75;8.90;;;;;;;13.45;84.66;102615.19;6222761;28;20053;-72
2021/05/30 09:09:19;;;;;;;21.40;9.70;;;;;;;13.24;84.95;102613.28;6220799;28;20054;-73
2021/05/30 09:12:22;;;;;;;18.58;8.52;;;;;;;13.41;85.46;102617.06;6222644;28;20505;-73
2021/05/30 09:15:51;;;;;;;15.75;7.97;;;;;;;13.26;85.99;102614.94;6214262;28;20176;-73
2021/05/30 09:18:52;;;;;;;17.77;8.43;;;;;;;13.18;86.00;102607.28;6222081;28;20046;-73
2021/05/30 09:21:53;;;;;;;26.20;9.95;;;;;;;13.30;85.93;102615.69;6222664;28;20073;-73
2021/05/30 09:25:12;;;;;;;20.77;9.98;;;;;;;13.42;85.77;102605.56;6222281;28;20100;-75
2021/05/30 09:28:20;;;;;;;13.17;7.47;;;;;;;13.75;84.38;102609.69;6221870;28;20046;-75
2021/05/30 09:31:21;;;;;;;10.57;7.03;;;;;;;13.85;81.78;102611.97;6221755;28;20057;-73
2021/05/30 09:34:26;;;;;;;17.83;6.97;;;;;;;13.92;82.22;102607.28;6222294;28;20289;-78
2021/05/30 09:37:27;;;;;;;11.50;6.45;;;;;;;14.20;79.39;102602.66;6211154;28;20050;-74
2021/05/30 09:40:36;;;;;;;10.82;6.15;;;;;;;13.87;79.94;102607.47;6208620;28;20168;-74
2021/05/30 09:43:47;;;;;;;11.65;5.68;;;;;;;14.05;79.33;102605.91;6222001;28;20058;-74
2021/05/30 09:46:48;;;;;;;10.52;4.97;;;;;;;14.34;72.00;102602.13;6221407;28;20046;-73
2021/05/30 09:49:54;;;;;;;8.32;4.90;;;;;;;14.50;72.26;102606.88;6208996;28;20569;-74
2021/05/30 09:52:55;;;;;;;8.80;5.30;;;;;;;14.19;72.82;102597.44;6220459;28;20050;-75
2021/05/30 09:55:56;;;;;;;11.95;5.10;;;;;;;14.51;67.30;102595.34;6221559;28;20108;-74
2021/05/30 09:58:58;;;;;;;12.02;4.60;;;;;;;14.81;67.23;102598.53;6221301;28;20548;-74
2021/05/30 10:02:02;;;;;;;6.95;3.95;;;;;;;14.63;68.41;102589.56;6221804;28;20050;-74
2021/05/30 10:05:03;;;;;;;13.82;4.57;;;;;;;14.80;68.84;102596.78;6222033;28;20053;-74
2021/05/30 10:08:05;;;;;;;14.85;6.55;;;;;;;14.76;69.18;102595.19;6199178;28;20050;-73
2021/05/30 10:11:06;;;;;;;7.45;4.93;;;;;;;14.73;70.83;102590.91;6209298;28;20053;-74
2021/05/30 10:14:08;;;;;;;15.30;5.68;;;;;;;14.77;71.96;102586.34;6197480;28;20517;-74
2021/05/30 10:17:11;;;;;;;11.93;5.38;;;;;;;14.83;73.07;102586.09;6212947;28;20053;-76
2021/05/30 10:20:15;;;;;;;14.88;6.80;;;;;;;15.18;69.55;102585.47;6221702;28;20050;-76
2021/05/30 10:23:18;;;;;;;12.50;7.22;;;;;;;14.93;72.71;102590.06;6221809;28;20103;-76
2021/05/30 10:26:21;;;;;;;15.15;7.18;;;;;;;15.35;71.37;102587.38;6221687;28;20496;-76
2021/05/30 10:29:22;;;;;;;15.82;5.95;;;;;;;15.34;69.74;102582.13;6204670;28;20155;-77
2021/05/30 10:32:26;;;;;;;8.05;5.38;;;;;;;15.52;68.62;102589.25;6232332;28;20080;-76
2021/05/30 10:35:27;;;;;;;14.55;6.25;;;;;;;15.50;68.59;102583.19;6243416;28;20355;-75
2021/05/30 10:38:36;;;;;;;13.90;5.88;;;;;;;15.52;69.81;102578.66;6207172;28;20092;-75
2021/05/30 10:41:37;;;;;;;10.43;5.00;;;;;;;15.85;65.45;102586.03;6215739;28;20587;-75
2021/05/30 10:44:55;;;;;;;9.02;4.88;;;;;;;16.00;67.69;102588.00;6217680;28;20125;-75
2021/05/30 10:48:18;;;;;;;21.93;8.33;;;;;;;16.02;67.77;102586.13;6214346;28;20049;-75
2021/05/30 10:51:34;;;;;;;12.05;6.43;;;;;;;15.92;68.10;102582.19;6224558;28;20136;-75
2021/05/30 10:54:35;;;;;;;12.13;5.30;;;;;;;16.01;67.87;102575.59;6213031;28;20077;-75
2021/05/30 10:57:41;;;;;;;13.65;5.03;;;;;;;16.01;62.63;102575.59;6224808;28;20092;-74
2021/05/30 11:00:42;;;;;;;10.07;5.13;;;;;;;16.31;63.38;102571.50;6225233;28;20473;-75
2021/05/30 11:03:52;;;;;;;10.02;5.05;;;;;;;16.42;62.47;102570.97;6224525;28;20093;-75
2021/05/30 11:06:54;;;;;;;9.90;5.28;;;;;;;16.30;64.29;102575.06;6225655;28;20046;-75
2021/05/30 11:10:11;;;;;;;14.90;6.43;;;;;;;16.55;68.89;102573.88;6222321;28;20053;-75
2021/05/30 11:13:15;;;;;;;13.55;6.57;;;;;;;17.00;66.17;102568.09;6273827;23;20052;-79
2021/05/30 11:16:17;;;;;;;11.35;6.15;;;;;;;17.20;67.68;102567.91;6265796;28;20407;-77
2021/05/30 11:19:18;;;;;;;11.18;6.60;;;;;;;17.37;63.24;102571.47;6266236;28;20053;-77
2021/05/30 11:22:19;;;;;;;10.85;6.22;;;;;;;17.24;66.14;102566.81;6274203;28;20051;-76
2021/05/30 11:25:23;;;;;;;16.17;6.90;;;;;;;17.43;64.03;102553.41;6263142;28;20056;-76
2021/05/30 11:28:25;;;;;;;10.77;6.05;;;;;;;17.83;65.16;102550.41;6267061;28;20484;-79
2021/05/30 11:31:27;;;;;;;10.73;5.20;;;;;;;18.21;60.84;102548.25;6267040;28;20087;-77
2021/05/30 11:34:29;;;;;;;12.35;5.43;;;;;;;18.49;59.69;102544.91;6275079;28;20049;-77
2021/05/30 11:37:30;;;;;;;14.77;5.57;;;;;;;18.81;60.85;102540.38;6274741;28;20048;-76
2021/05/30 11:40:34;;;;;;;6.38;4.13;;;;;;;19.14;58.20;102542.81;6274746;28;20056;-76
2021/05/30 11:43:35;;;;;;;11.30;4.68;;;;;;;19.32;55.54;102537.31;6266462;28;20045;-80
2021/05/30 11:46:39;;;;;;;12.90;5.68;;;;;;;19.47;54.12;102539.03;6275164;28;20076;-79
2021/05/30 11:49:42;;;;;;;11.55;4.75;;;;;;;19.50;57.24;102536.16;6274511;28;20049;-79
2021/05/30 11:52:42;;;;;;;11.35;5.05;;;;;;;19.71;57.85;102534.84;6273604;28;20455;-79
2021/05/30 11:55:46;;;;;;;11.15;4.93;;;;;;;20.24;52.00;102527.84;6274238;28;20100;-77
2021/05/30 11:58:47;;;;;;;8.57;5.03;;;;;;;20.02;54.41;102520.38;6274343;28;20041;-78
2021/05/30 12:01:50;;;;;;;14.85;5.55;;;;;;;20.06;55.98;102520.19;6274250;28;20130;-76
2021/05/30 12:04:51;;;;;;;9.80;4.28;;;;;;;20.17;50.52;102523.03;6274312;28;20183;-77
2021/05/30 12:07:52;;;;;;;14.07;5.20;;;;;;;20.24;51.35;102518.97;6273874;28;20049;-77
2021/05/30 12:10:56;;;;;;;10.88;4.90;;;;;;;20.00;55.54;102510.78;6274115;28;20053;-77
2021/05/30 12:14:02;;;;;;;10.10;4.82;;;;;;;20.20;52.86;102512.13;6263968;28;20045;-77
2021/05/30 12:17:11;;;;;;;12.63;4.50;;;;;;;20.31;51.94;102514.09;6262973;28;20436;-79
2021/05/30 12:20:20;;;;;;;11.18;4.60;;;;;;;20.91;51.07;102511.78;6262700;28;20238;-77
2021/05/30 12:23:22;;;;;;;6.90;4.25;;;;;;;21.09;50.89;102509.66;6259471;28;20060;-77
2021/05/30 12:26:23;;;;;;;13.63;5.30;;;;;;;21.17;52.62;102514.50;6260854;28;20057;-77
2021/05/30 12:29:25;;;;;;;13.07;4.82;;;;;;;21.19;52.09;102508.06;6261540;28;20458;-77
2021/05/30 12:32:27;;;;;;;13.43;4.65;;;;;;;21.29;52.62;102513.59;6259426;28;20068;-77
2021/05/30 12:35:49;;;;;;;9.32;3.72;;;;;;;21.53;49.07;102511.06;6260334;28;20060;-77
2021/05/30 12:38:59;;;;;;;8.57;4.78;;;;;;;21.11;49.52;102515.75;6260524;28;20038;-80
2021/05/30 12:42:04;;;;;;;11.55;5.10;;;;;;;21.11;52.69;102510.41;6259027;28;20052;-77
2021/05/30 12:45:08;;;;;;;9.52;4.13;;;;;;;21.47;48.95;102514.16;6260461;28;20045;-77
2021/05/30 12:48:10;;;;;;;10.98;4.10;;;;;;;21.79;48.44;102514.50;6261928;28;20480;-76
2021/05/30 12:51:17;;;;;;;9.73;3.80;;;;;;;21.34;46.53;102510.63;6258847;28;20044;-75
2021/05/30 12:54:19;;;;;;;5.53;3.53;;;;;;;21.52;46.64;102509.31;6261498;28;20072;-75
2021/05/30 12:57:32;;;;;;;13.80;4.53;;;;;;;21.51;48.23;102494.25;6261506;28;20045;-75
2021/05/30 13:00:36;;;;;;;10.65;3.42;;;;;;;21.67;45.52;102494.00;6262318;28;20072;-76
2021/05/30 13:03:38;;;;;;;11.15;4.05;;;;;;;21.56;46.46;102500.13;6259888;28;20060;-77
2021/05/30 13:06:52;;;;;;;8.48;3.70;;;;;;;21.66;42.73;102482.41;6267336;28;20049;-77
2021/05/30 13:09:55;;;;;;;7.68;3.72;;;;;;;21.66;44.41;102490.44;6266300;28;20427;-78
2021/05/30 13:12:56;;;;;;;6.45;3.25;;;;;;;21.62;42.93;102485.44;6263411;28;20041;-77
2021/05/30 13:15:58;;;;;;;4.93;2.25;;;;;;;21.60;39.71;102474.84;6263745;28;20048;-79
2021/05/30 13:19:00;;;;;;;4.05;2.30;;;;;;;21.41;38.22;102478.00;6272265;28;20102;-80
2021/05/30 13:22:04;;;;;;;8.52;2.30;;;;;;;21.45;38.88;102478.66;6269923;28;20451;-80
2021/05/30 13:25:06;;;;;;;6.57;1.75;;;;;;;21.47;35.12;102485.56;6247206;28;20041;-77
2021/05/30 13:28:19;;;;;;;3.67;1.90;;;;;;;21.33;37.12;102471.50;6251018;28;20099;-77
2021/05/30 13:31:20;;;;;;;4.82;2.55;;;;;;;21.44;39.89;102476.94;6265084;28;20052;-78
2021/05/30 13:34:22;;;;;;;5.65;2.42;;;;;;;21.53;38.18;102454.88;6272825;28;20094;-78
2021/05/30 13:37:23;;;;;;;4.65;2.45;;;;;;;21.67;39.97;102454.72;6273106;28;20136;-76
2021/05/30 13:40:24;;;;;;;2.90;1.98;;;;;;;21.68;36.49;102456.41;6272707;28;20053;-79
2021/05/30 13:43:26;;;;;;;3.65;1.42;;;;;;;21.82;35.69;102443.84;6272905;28;20418;-80
2021/05/30 13:46:28;;;;;;;5.07;1.80;;;;;;;22.15;34.39;102448.53;6265817;28;20420;-80
2021/05/30 13:49:30;;;;;;;3.75;1.70;;;;;;;22.09;34.32;102430.22;6258764;28;20046;-80
2021/05/30 13:52:31;;;;;;;5.15;2.97;;;;;;;22.01;35.70;102436.16;6261251;28;20037;-78